Time;durP1;ratioP1;P1;durP2;ratioP2;P2;SDS_P1;SDS_P2;PMS_P1;PMS_P2;Temp;Humidity;BMP_temperature;BMP_pressure;BME280_temperature;BME280_humidity;BME280_pressure;Samples;Min_cycle;Max_cycle;Signal;HPM_P1;HPM_P2
2023/12/12 00:01:43;;;;;;;12.63;4.97;;;10.80;99.90;;;10.99;86.62;100672.00;4880146;29;20061;-71
2023/12/12 00:04:12;;;;;;;14.02;5.07;;;10.80;99.90;;;10.97;86.52;100660.56;4880022;29;20128;-70
2023/12/12 00:06:40;;;;;;;11.15;5.13;;;10.70;99.90;;;10.92;86.44;100648.25;4894222;29;20068;-70
2023/12/12 00:09:10;;;;;;;13.10;5.68;;;10.70;99.90;;;10.91;86.45;100647.38;4880239;29;20084;-70
2023/12/12 00:11:38;;;;;;;9.70;5.50;;;10.70;99.90;;;10.86;86.80;100647.41;4879901;29;20069;-70
2023/12/12 00:14:06;;;;;;;13.65;6.28;;;10.70;99.90;;;10.82;86.62;100652.72;4879827;29;20467;-71
2023/12/12 00:16:35;;;;;;;14.18;6.43;;;10.60;99.90;;;10.74;86.83;100649.31;4879781;29;20053;-70
2023/12/12 00:19:03;;;;;;;11.85;6.25;;;10.50;99.90;;;10.65;86.91;100658.19;4879652;29;20070;-70
2023/12/12 00:21:32;;;;;;;8.85;5.80;;;10.40;99.90;;;10.56;87.26;100660.03;4879613;29;20108;-70
2023/12/12 00:24:00;;;;;;;15.02;6.07;;;10.30;99.90;;;10.55;87.41;100660.94;4879720;29;20072;-70
2023/12/12 00:26:30;;;;;;;10.35;5.28;;;10.30;99.90;;;10.52;87.45;100660.94;4879594;29;20566;-70
2023/12/12 00:28:58;;;;;;;13.13;5.07;;;10.30;99.90;;;10.52;87.59;100664.47;4879658;29;20097;-70
2023/12/12 00:31:27;;;;;;;7.00;4.90;;;10.20;99.90;;;10.32;87.32;100632.00;4879554;29;20525;-70
2023/12/12 00:33:55;;;;;;;10.98;5.10;;;10.20;99.90;;;10.49;87.53;100655.69;4894130;29;20376;-70
2023/12/12 00:36:24;;;;;;;12.00;5.32;;;10.20;99.90;;;10.51;87.33;100653.91;4879655;29;20049;-70
2023/12/12 00:38:52;;;;;;;9.18;5.13;;;10.30;99.90;;;10.52;87.53;100653.00;4879527;29;20494;-70
2023/12/12 00:41:20;;;;;;;12.98;5.13;;;10.20;99.90;;;10.52;87.33;100647.72;4879336;29;20053;-70
2023/12/12 00:43:50;;;;;;;9.65;5.43;;;10.30;99.90;;;10.52;87.20;100642.41;4879389;29;20519;-71
2023/12/12 00:46:18;;;;;;;7.23;5.07;;;10.30;99.90;;;10.55;87.52;100639.78;4879298;29;20112;-70
2023/12/12 00:48:47;;;;;;;9.02;6.07;;;10.30;99.90;;;10.58;87.33;100634.44;4879304;29;20049;-70
2023/12/12 00:51:15;;;;;;;11.65;8.05;;;10.30;99.90;;;10.65;87.24;100634.38;4879217;29;20073;-70
2023/12/12 00:53:43;;;;;;;16.23;8.65;;;10.40;99.90;;;10.67;87.28;100627.31;4879206;29;20616;-70
2023/12/12 00:56:12;;;;;;;12.23;7.75;;;10.40;99.90;;;10.68;87.12;100629.03;4879177;29;20045;-70
2023/12/12 00:58:40;;;;;;;12.70;7.50;;;10.50;99.90;;;10.70;87.18;100627.25;4879085;29;20052;-70
2023/12/12 01:01:13;;;;;;;12.65;6.20;;;10.50;99.90;;;10.72;87.03;100624.63;4879301;29;20065;-70
2023/12/12 01:03:42;;;;;;;14.23;6.40;;;10.50;99.90;;;10.63;86.91;100606.16;4879081;29;20053;-70
2023/12/12 01:06:22;;;;;;;14.48;5.57;;;10.50;99.90;;;10.73;86.90;100615.78;4879071;29;20136;-70
2023/12/12 01:08:54;;;;;;;14.13;6.13;;;10.50;99.90;;;10.74;86.85;100610.47;4879283;29;20406;-70
2023/12/12 01:11:22;;;;;;;12.05;6.15;;;10.50;99.90;;;10.77;86.85;100617.50;4878846;29;20049;-70
2023/12/12 01:13:51;;;;;;;10.30;6.40;;;10.50;99.90;;;10.78;87.09;100614.84;4878947;29;20055;-70
2023/12/12 01:16:20;;;;;;;11.90;6.28;;;10.60;99.90;;;10.78;86.70;100612.19;4878815;29;20483;-70
2023/12/12 01:18:49;;;;;;;11.70;6.03;;;10.60;99.90;;;10.78;86.58;100612.19;4878979;29;20140;-70
2023/12/12 01:21:18;;;;;;;9.95;5.95;;;10.60;99.90;;;10.80;86.80;100606.91;4878924;29;20049;-70
2023/12/12 01:23:50;;;;;;;10.45;5.53;;;10.60;99.90;;;10.81;86.80;100604.25;4878792;29;20076;-70
2023/12/12 01:26:21;;;;;;;11.60;6.13;;;10.60;99.90;;;10.79;87.13;100598.09;4879111;29;20095;-70
2023/12/12 01:28:50;;;;;;;14.27;6.03;;;10.60;99.90;;;10.84;87.51;100598.03;4879079;29;20102;-70
2023/12/12 01:31:20;;;;;;;10.80;6.43;;;10.60;99.90;;;10.80;87.87;100593.69;4878861;29;20113;-70
2023/12/12 01:33:49;;;;;;;;;;;10.60;99.90;;;10.09;86.80;100583.66;4879257;29;20056;-70
2023/12/12 01:36:18;;;;;;;8.20;4.82;;;10.10;99.90;;;9.81;89.50;100585.59;4878706;29;19924;-70
2023/12/12 01:38:46;;;;;;;16.00;6.07;;;9.60;99.90;;;9.96;89.66;100588.19;4878748;29;20131;-70
2023/12/12 01:41:15;;;;;;;18.83;6.68;;;9.70;99.90;;;10.00;90.13;100583.75;4878936;29;20077;-70
2023/12/12 01:43:43;;;;;;;16.88;6.32;;;9.70;99.90;;;10.00;91.04;100592.56;4877565;29;20541;-70
2023/12/12 01:46:18;;;;;;;12.13;6.32;;;9.80;99.90;;;9.97;91.42;100575.81;4878653;29;20053;-70
2023/12/12 01:48:48;;;;;;;17.23;7.20;;;9.80;99.90;;;10.21;91.41;100595.94;4878656;29;20056;-70
2023/12/12 01:51:18;;;;;;;17.52;7.13;;;10.00;99.90;;;10.25;91.35;100598.56;4878732;29;20156;-70
2023/12/12 01:53:48;;;;;;;16.88;7.93;;;10.10;99.90;;;10.08;91.32;100559.91;4878658;29;20041;-70
2023/12/12 01:56:17;;;;;;;18.95;7.22;;;10.10;99.90;;;10.32;91.13;100594.09;4878664;29;20053;-70
2023/12/12 01:58:49;;;;;;;17.45;7.45;;;10.10;99.90;;;9.78;91.08;100514.31;4878640;29;20157;-71
2023/12/12 02:01:19;;;;;;;14.80;7.97;;;10.10;99.90;;;10.24;91.01;100594.16;4892654;29;20096;-70
2023/12/12 02:03:50;;;;;;;13.00;6.95;;;10.00;99.90;;;10.24;90.88;100588.88;4878730;29;20045;-70
2023/12/12 02:06:22;;;;;;;11.60;6.35;;;10.10;99.90;;;10.20;91.13;100588.94;4878591;29;20053;-70
2023/12/12 02:08:51;;;;;;;13.05;6.03;;;10.00;99.90;;;9.95;91.23;100562.63;4878559;29;20112;-70
2023/12/12 02:11:21;;;;;;;12.68;6.63;;;9.90;99.90;;;9.96;91.28;100574.97;4878563;29;20056;-70
2023/12/12 02:13:50;;;;;;;13.90;7.05;;;9.70;99.90;;;9.99;91.51;100576.69;4878500;29;20458;-70
2023/12/12 02:16:18;;;;;;;9.40;6.13;;;9.70;99.90;;;9.74;91.61;100549.56;4878721;29;20128;-70
2023/12/12 02:18:47;;;;;;;19.42;6.95;;;9.60;99.90;;;9.86;91.95;100578.56;4878420;29;20525;-70
2023/12/12 02:21:21;;;;;;;13.32;7.25;;;9.60;99.90;;;9.87;92.47;100585.56;4878658;29;20136;-70
2023/12/12 02:23:49;;;;;;;19.42;7.78;;;9.50;99.90;;;9.80;93.01;100589.16;4896156;29;20057;-70
2023/12/12 02:26:18;;;;;;;20.27;8.52;;;9.60;99.90;;;9.27;93.99;100511.13;4881677;29;20124;-70
2023/12/12 02:28:47;;;;;;;19.02;8.57;;;9.40;99.90;;;9.46;94.82;100602.53;4881867;29;20136;-70
2023/12/12 02:31:17;;;;;;;24.45;9.68;;;9.30;99.90;;;9.39;96.21;100583.19;4882091;29;20598;-70
2023/12/12 02:33:45;;;;;;;26.52;10.27;;;9.10;99.90;;;9.26;97.58;100570.06;4881695;29;20057;-70
2023/12/12 02:36:15;;;;;;;28.65;10.20;;;9.00;99.90;;;9.13;98.87;100571.88;4911924;29;20087;-70
2023/12/12 02:38:45;;;;;;;29.07;11.17;;;9.00;99.90;;;9.12;100.00;100566.63;4881440;29;20495;-70
2023/12/12 02:41:14;;;;;;;31.92;10.90;;;8.90;99.90;;;9.16;100.00;100556.03;4881675;29;20049;-70
2023/12/12 02:43:43;;;;;;;33.38;11.43;;;8.90;99.90;;;9.27;100.00;100575.31;4881414;29;20053;-70
2023/12/12 02:46:11;;;;;;;27.52;11.18;;;9.00;99.90;;;9.22;100.00;100573.59;4881893;29;20048;-70
2023/12/12 02:48:39;;;;;;;25.30;10.32;;;9.00;99.90;;;9.29;100.00;100578.84;4881373;29;20049;-70
2023/12/12 02:51:08;;;;;;;29.67;10.35;;;9.10;99.90;;;9.37;100.00;100573.56;4881291;29;20127;-70
2023/12/12 02:53:36;;;;;;;31.33;10.60;;;9.20;99.90;;;9.40;100.00;100563.84;4881245;29;20069;-70
2023/12/12 02:56:07;;;;;;;28.10;11.45;;;9.20;99.90;;;9.45;100.00;100564.69;4881228;29;20116;-70
2023/12/12 02:58:35;;;;;;;;;;;9.20;99.90;;;9.44;100.00;100556.78;4881971;29;20418;-70
2023/12/12 03:01:04;;;;;;;32.97;11.60;;;9.20;99.90;;;9.50;100.00;100556.75;4895188;29;19946;-70
2023/12/12 03:03:32;;;;;;;33.60;11.73;;;9.20;99.90;;;9.46;100.00;100562.94;4881127;29;20049;-70
2023/12/12 03:06:00;;;;;;;30.60;11.77;;;9.20;99.90;;;9.19;100.00;100518.19;4895568;29;20575;-70
2023/12/12 03:08:28;;;;;;;28.67;11.90;;;9.20;99.90;;;9.46;100.00;100553.25;4881212;29;20069;-71
2023/12/12 03:10:57;;;;;;;33.05;13.30;;;9.20;99.90;;;9.52;100.00;100560.28;4880951;29;20068;-70
2023/12/12 03:13:27;;;;;;;32.40;13.85;;;9.30;99.90;;;9.64;100.00;100557.56;4880928;29;20049;-70
2023/12/12 03:15:55;;;;;;;29.85;13.30;;;9.40;99.90;;;9.73;99.51;100550.47;4880910;29;20047;-70
2023/12/12 03:18:23;;;;;;;30.30;12.65;;;9.60;99.90;;;9.74;99.01;100546.94;4880719;29;20053;-70
2023/12/12 03:20:52;;;;;;;24.35;10.32;;;9.60;99.90;;;9.57;98.00;100545.28;4880752;29;20061;-70
2023/12/12 03:23:20;;;;;;;23.05;11.65;;;9.40;99.90;;;9.16;98.46;100532.28;4880859;29;20052;-70
2023/12/12 03:25:49;;;;;;;19.00;10.80;;;9.00;99.90;;;9.22;99.06;100528.72;4880700;29;20088;-70
2023/12/12 03:28:17;;;;;;;32.20;13.35;;;8.90;99.90;;;9.23;99.49;100534.03;4879605;29;20053;-70
2023/12/12 03:30:47;;;;;;;31.40;13.65;;;9.00;99.90;;;9.35;99.51;100533.94;4880603;29;20045;-70
2023/12/12 03:33:15;;;;;;;30.17;13.70;;;9.10;99.90;;;9.32;99.80;100507.59;4880538;29;20049;-70
2023/12/12 03:35:44;;;;;;;28.23;13.55;;;9.20;99.90;;;9.63;99.62;100537.31;4880482;29;20333;-70
2023/12/12 03:38:12;;;;;;;27.58;13.23;;;9.40;99.90;;;9.73;99.09;100534.63;4894799;29;20056;-70
2023/12/12 03:40:41;;;;;;;31.55;14.20;;;9.50;99.90;;;9.75;98.96;100535.50;4880420;29;20060;-70
2023/12/12 03:43:09;;;;;;;25.23;12.90;;;9.60;99.90;;;9.80;98.74;100531.03;4880333;29;20052;-70
2023/12/12 03:45:38;;;;;;;24.75;12.90;;;9.60;99.90;;;9.85;98.33;100523.94;4879227;29;20048;-70
2023/12/12 03:48:08;;;;;;;36.20;14.75;;;9.60;99.90;;;9.78;98.70;100518.72;4880306;29;20049;-70
2023/12/12 03:50:37;;;;;;;34.20;14.30;;;9.60;99.90;;;9.63;98.43;100490.69;4880453;29;20049;-70
2023/12/12 03:53:05;;;;;;;27.77;13.10;;;9.60;99.90;;;9.66;98.56;100497.69;4880209;29;20049;-70
2023/12/12 03:55:34;;;;;;;23.80;12.85;;;9.50;99.90;;;9.54;98.47;100501.28;4880383;29;20037;-70
2023/12/12 03:58:03;;;;;;;26.10;13.90;;;9.30;99.90;;;9.49;98.94;100491.63;4880052;29;20129;-70
2023/12/12 04:00:31;;;;;;;26.02;12.75;;;9.20;99.90;;;9.18;100.00;100480.38;4880089;29;20144;-71
2023/12/12 04:03:00;;;;;;;29.30;14.48;;;9.00;99.90;;;8.85;100.00;100480.53;4880129;29;20383;-70
2023/12/12 04:05:29;;;;;;;30.30;14.90;;;8.60;99.90;;;8.80;100.00;100479.69;4880061;29;20045;-70
2023/12/12 04:07:58;;;;;;;31.52;13.95;;;8.50;99.90;;;8.82;100.00;100467.38;4880035;29;20049;-70
2023/12/12 04:10:26;;;;;;;34.63;15.15;;;8.50;99.90;;;8.82;100.00;100457.69;4879927;29;20045;-70
2023/12/12 04:12:56;;;;;;;27.17;14.45;;;8.50;99.90;;;8.95;100.00;100461.16;4879820;29;20057;-70
2023/12/12 04:15:25;;;;;;;37.45;14.95;;;8.60;99.90;;;8.96;100.00;100457.66;4880143;29;20053;-70
2023/12/12 04:17:53;;;;;;;35.97;16.05;;;8.70;99.90;;;8.99;100.00;100462.88;4894231;29;20093;-70
2023/12/12 04:20:22;;;;;;;32.88;15.48;;;8.80;99.90;;;8.92;100.00;100450.63;4879811;29;20056;-70
2023/12/12 04:22:51;;;;;;;36.05;16.10;;;8.70;99.90;;;8.97;100.00;100459.38;4879606;29;20048;-70
2023/12/12 04:25:20;;;;;;;42.20;15.93;;;8.80;99.90;;;8.90;100.00;100449.75;4879679;29;20586;-70
2023/12/12 04:27:48;;;;;;;39.03;16.83;;;8.70;99.90;;;8.69;100.00;100453.34;4879635;29;20139;-70
2023/12/12 04:30:17;;;;;;;42.60;17.45;;;8.50;99.90;;;8.63;100.00;100455.97;4879578;29;20099;-70
2023/12/12 04:32:46;;;;;;;44.88;17.50;;;8.40;99.90;;;8.43;100.00;100417.41;4879483;29;20053;-70
2023/12/12 04:35:14;;;;;;;37.10;17.20;;;8.40;99.90;;;8.69;100.00;100453.34;4893839;29;20053;-70
2023/12/12 04:37:42;;;;;;;42.00;17.95;;;8.40;99.90;;;8.54;100.00;100452.50;4879367;29;20104;-69
2023/12/12 04:40:13;;;;;;;41.72;17.52;;;8.30;99.90;;;8.47;100.00;100451.66;4879386;29;20498;-70
2023/12/12 04:42:42;;;;;;;;;;;8.30;99.90;;;8.42;100.00;100456.06;4880239;29;20052;-70
2023/12/12 04:45:11;;;;;;;43.20;17.13;;;8.20;99.90;;;8.50;100.00;100453.41;4879004;29;20333;-70
2023/12/12 04:47:39;;;;;;;49.90;19.02;;;8.20;99.90;;;8.58;100.00;100454.25;4879294;29;20049;-70
2023/12/12 04:50:09;;;;;;;46.53;18.80;;;8.30;99.90;;;8.60;100.00;100461.28;4879240;29;20406;-70
2023/12/12 04:52:38;;;;;;;52.33;20.25;;;8.40;99.90;;;8.51;100.00;100449.91;4879310;29;20064;-70
2023/12/12 04:55:08;;;;;;;52.97;20.27;;;8.30;99.90;;;8.52;100.00;100444.59;4879287;29;20467;-70
2023/12/12 04:57:38;;;;;;;57.55;20.00;;;8.30;99.90;;;8.58;100.00;100449.88;4879170;29;20144;-70
2023/12/12 05:00:13;;;;;;;56.17;20.27;;;8.40;99.90;;;8.59;100.00;100449.00;4879252;29;20052;-70
2023/12/12 05:02:42;;;;;;;57.90;20.90;;;8.40;99.90;;;8.73;100.00;100451.59;4879198;29;20064;-70
2023/12/12 05:05:10;;;;;;;52.60;20.50;;;8.50;99.90;;;8.85;100.00;100439.22;4878059;29;20121;-70
2023/12/12 05:07:39;;;;;;;56.20;20.80;;;8.60;99.90;;;8.11;100.00;100326.16;4879044;29;20060;-70
2023/12/12 05:10:08;;;;;;;56.60;20.17;;;8.60;99.90;;;8.69;100.00;100448.06;4879032;29;20124;-70
2023/12/12 05:12:38;;;;;;;54.50;19.77;;;8.50;99.90;;;8.60;100.00;100429.66;4877870;29;20485;-70
2023/12/12 05:15:08;;;;;;;60.63;19.95;;;8.40;99.90;;;7.87;100.00;100293.75;4878991;29;20068;-70
2023/12/12 05:17:37;;;;;;;57.00;20.23;;;8.40;99.90;;;8.77;100.00;100435.72;4879078;29;20049;-70
2023/12/12 05:20:11;;;;;;;56.63;19.60;;;8.50;99.90;;;8.67;100.00;100419.97;4879371;29;20060;-70
2023/12/12 05:22:40;;;;;;;54.42;20.58;;;8.60;99.90;;;8.71;100.00;100440.16;4879139;29;20410;-70
2023/12/12 05:25:09;;;;;;;57.22;20.75;;;8.50;99.90;;;8.76;100.00;100433.09;4878857;29;20448;-70
2023/12/12 05:27:38;;;;;;;63.38;20.85;;;8.60;99.90;;;8.68;100.00;100425.22;4878936;29;20053;-70
2023/12/12 05:30:08;;;;;;;62.83;20.10;;;8.50;99.90;;;8.72;100.00;100432.25;4878867;29;20064;-70
2023/12/12 05:32:37;;;;;;;53.50;19.92;;;8.50;99.90;;;8.86;100.00;100432.19;4893341;29;20053;-70
2023/12/12 05:35:08;;;;;;;53.63;19.73;;;8.60;99.90;;;8.89;100.00;100424.25;4878799;29;20065;-70
2023/12/12 05:37:36;;;;;;;62.30;21.45;;;8.60;99.90;;;8.67;100.00;100417.34;4878995;29;20055;-70
2023/12/12 05:40:07;;;;;;;62.50;21.65;;;8.50;99.90;;;8.64;100.00;100417.34;4878722;29;20051;-70
2023/12/12 05:42:35;;;;;;;66.60;23.67;;;8.50;99.90;;;8.61;100.00;100414.72;4878684;29;20045;-70
2023/12/12 05:45:07;;;;;;;60.25;19.88;;;8.40;99.90;;;8.58;100.00;100414.72;4878652;29;20127;-70
2023/12/12 05:47:35;;;;;;;66.22;21.08;;;8.40;99.90;;;8.57;100.00;100390.13;4879057;29;20041;-71
2023/12/12 05:50:05;;;;;;;70.80;22.30;;;8.40;99.90;;;8.68;100.00;100403.25;4877444;29;20065;-70
2023/12/12 05:52:33;;;;;;;65.15;21.90;;;8.50;99.90;;;8.71;100.00;100398.84;4878702;29;20053;-71
2023/12/12 05:55:05;;;;;;;66.88;23.63;;;8.50;99.90;;;8.81;100.00;100402.31;4878635;29;20045;-71
2023/12/12 05:57:33;;;;;;;64.03;23.23;;;8.60;99.90;;;8.95;100.00;100405.75;4880569;29;20053;-70
2023/12/12 06:00:05;;;;;;;61.25;22.88;;;8.70;99.90;;;9.01;100.00;100408.38;4882250;29;20106;-70
2023/12/12 06:02:40;;;;;;;65.93;24.17;;;8.70;99.90;;;8.99;100.00;100395.19;4882463;29;20061;-71
2023/12/12 06:05:09;;;;;;;66.97;23.75;;;8.90;99.90;;;8.83;100.00;100387.34;4881122;29;20060;-71
2023/12/12 06:07:38;;;;;;;53.42;22.02;;;8.80;99.90;;;8.89;100.00;100390.84;4882123;29;20037;-70
2023/12/12 06:10:09;;;;;;;62.58;23.02;;;8.70;99.90;;;8.87;100.00;100384.72;4882035;29;20387;-71
2023/12/12 06:12:37;;;;;;;;;;;8.70;99.90;;;8.79;100.00;100381.22;4882474;29;20056;-70
2023/12/12 06:15:09;;;;;;;56.20;21.98;;;8.60;99.90;;;8.85;100.00;100380.31;4881951;29;19928;-71
2023/12/12 06:17:38;;;;;;;54.67;21.83;;;8.60;99.90;;;8.87;100.00;100382.06;4881902;29;20517;-71
2023/12/12 06:20:08;;;;;;;56.67;22.98;;;8.70;99.90;;;8.87;100.00;100368.00;4881679;29;20482;-70
2023/12/12 06:22:37;;;;;;;57.85;22.20;;;8.70;99.90;;;8.88;100.00;100378.53;4896103;29;20443;-71
2023/12/12 06:25:08;;;;;;;51.65;20.55;;;8.70;99.90;;;8.90;100.00;100370.63;4880754;29;20044;-71
2023/12/12 06:27:37;;;;;;;56.90;21.63;;;8.70;99.90;;;8.87;100.00;100362.72;4880485;29;20067;-70
2023/12/12 06:30:09;;;;;;;52.63;20.95;;;8.70;99.90;;;8.94;100.00;100367.09;4881664;29;20509;-71
2023/12/12 06:32:37;;;;;;;60.60;23.75;;;8.70;99.90;;;9.09;100.00;100356.44;4881661;29;20057;-71
2023/12/12 06:35:07;;;;;;;51.25;21.42;;;8.80;99.90;;;9.23;100.00;100357.22;4880597;29;20041;-70
2023/12/12 06:37:36;;;;;;;52.42;21.70;;;9.00;99.90;;;9.22;100.00;100344.03;4881543;29;20089;-70
2023/12/12 06:40:05;;;;;;;51.60;21.45;;;9.10;99.90;;;9.35;100.00;100356.25;4881551;29;20048;-70
2023/12/12 06:42:35;;;;;;;59.80;22.02;;;9.10;99.90;;;9.33;100.00;100356.25;4881399;29;20502;-70
2023/12/12 06:45:05;;;;;;;57.17;24.40;;;9.10;99.90;;;9.16;100.00;100357.25;4881298;29;20113;-70
2023/12/12 06:47:39;;;;;;;59.80;25.60;;;9.00;99.90;;;9.15;100.00;100359.03;4893308;29;20060;-70
2023/12/12 06:50:08;;;;;;;66.43;27.80;;;9.00;99.90;;;9.25;100.00;100355.47;4881278;29;20053;-70
2023/12/12 06:52:37;;;;;;;60.53;27.85;;;9.00;99.90;;;9.45;100.00;100358.81;4881497;29;20053;-70
2023/12/12 06:55:06;;;;;;;54.17;27.95;;;9.10;99.90;;;9.39;100.00;100353.56;4881266;29;20049;-70
2023/12/12 06:57:35;;;;;;;53.33;25.75;;;9.20;99.90;;;9.35;100.00;100351.84;4881164;29;20053;-70
2023/12/12 07:00:06;;;;;;;53.33;26.92;;;9.10;99.90;;;9.33;100.00;100348.34;4881338;29;20120;-71
2023/12/12 07:02:34;;;;;;;45.85;25.08;;;9.10;99.90;;;9.36;100.00;100340.41;4881232;29;20061;-70
2023/12/12 07:05:05;;;;;;;55.17;26.25;;;9.20;99.90;;;9.53;100.00;100345.53;4881227;29;20068;-70
2023/12/12 07:07:34;;;;;;;57.53;27.20;;;9.30;99.90;;;9.26;100.00;100346.63;4880728;29;20132;-70
2023/12/12 07:10:06;;;;;;;48.55;25.73;;;9.10;99.90;;;9.40;100.00;100344.78;4881178;29;20037;-71
2023/12/12 07:12:35;;;;;;;52.28;25.80;;;9.20;99.90;;;9.52;100.00;100335.88;4880961;29;20124;-71
2023/12/12 07:15:23;;;;;;;54.65;26.25;;;9.30;99.90;;;9.43;100.00;100341.22;4880819;29;20119;-70
2023/12/12 07:17:51;;;;;;;56.13;25.08;;;9.30;99.90;;;9.36;100.00;100331.59;4880952;29;20052;-70
2023/12/12 07:20:22;;;;;;;56.60;24.50;;;9.20;99.90;;;9.29;100.00;100341.31;4880922;29;20045;-70
2023/12/12 07:22:50;;;;;;;57.20;24.35;;;9.20;99.90;;;9.20;100.00;100304.47;4880897;29;20048;-71
2023/12/12 07:25:20;;;;;;;56.63;26.42;;;9.20;99.90;;;9.35;100.00;100330.72;4880794;29;20041;-71
2023/12/12 07:27:49;;;;;;;57.88;24.98;;;9.20;99.90;;;9.42;100.00;100321.88;4880637;29;20080;-70
2023/12/12 07:30:18;;;;;;;54.50;23.92;;;9.30;99.90;;;9.44;100.00;100324.50;4881051;29;20049;-70
2023/12/12 07:32:46;;;;;;;52.17;22.63;;;9.30;99.90;;;9.39;100.00;100313.97;4880579;29;20057;-71
2023/12/12 07:35:16;;;;;;;64.28;23.83;;;9.30;99.90;;;9.50;100.00;100320.06;4880449;29;20052;-71
2023/12/12 07:37:46;;;;;;;66.35;24.17;;;9.30;99.90;;;9.44;100.00;100312.19;4880402;29;20049;-71
2023/12/12 07:40:14;;;;;;;48.25;21.15;;;9.30;99.90;;;9.52;100.00;100307.72;4880483;29;20084;-70
2023/12/12 07:42:44;;;;;;;51.17;21.23;;;9.30;99.90;;;9.46;100.00;100307.78;4880555;29;20076;-69
2023/12/12 07:45:13;;;;;;;51.70;20.23;;;9.30;99.90;;;9.49;100.00;100301.56;4880419;29;20076;-71
2023/12/12 07:47:43;;;;;;;51.47;19.90;;;9.30;99.90;;;9.28;100.00;100291.22;4894867;29;20037;-71
2023/12/12 07:50:12;;;;;;;48.22;19.70;;;9.20;99.90;;;9.32;100.00;100301.72;4880544;29;20049;-70
2023/12/12 07:52:42;;;;;;;58.57;20.87;;;9.20;99.90;;;9.48;100.00;100300.72;4879270;29;20494;-71
2023/12/12 07:55:11;;;;;;;58.80;20.48;;;9.20;99.90;;;9.46;100.00;100298.97;4880303;29;20159;-72
2023/12/12 07:57:40;;;;;;;63.03;21.85;;;9.30;99.90;;;9.34;100.00;100296.44;4879083;29;20056;-71
2023/12/12 08:00:11;;;;;;;63.72;21.55;;;9.20;99.90;;;9.28;100.00;100280.66;4910077;29;20566;-71
2023/12/12 08:02:40;;;;;;;55.83;21.20;;;9.10;99.90;;;9.23;100.00;100278.06;4894326;29;20057;-69
2023/12/12 08:05:09;;;;;;;54.53;21.80;;;9.10;99.90;;;9.35;100.00;100274.44;4880167;29;20132;-69
2023/12/12 08:07:37;;;;;;;62.25;23.58;;;9.20;99.90;;;9.41;100.00;100271.72;4894557;29;20093;-69
2023/12/12 08:10:07;;;;;;;61.60;23.75;;;9.20;99.90;;;9.36;100.00;100266.50;4879918;29;20565;-69
2023/12/12 08:12:37;;;;;;;61.83;24.58;;;9.20;99.90;;;9.43;100.00;100267.31;4878772;29;20052;-69
2023/12/12 08:15:07;;;;;;;62.97;22.15;;;9.30;99.90;;;9.30;100.00;100268.31;4894343;29;20045;-70
2023/12/12 08:17:36;;;;;;;53.83;20.88;;;9.20;99.90;;;9.42;100.00;100266.47;4880099;29;20045;-69
2023/12/12 08:20:06;;;;;;;51.92;21.55;;;9.30;99.90;;;9.51;100.00;100273.41;4879140;29;20063;-70
2023/12/12 08:22:35;;;;;;;47.85;21.15;;;9.30;99.90;;;9.45;100.00;100262.91;4879743;29;20059;-70
2023/12/12 08:25:05;;;;;;;46.53;19.13;;;9.30;99.90;;;9.33;100.00;100255.97;4893848;29;20435;-68
2023/12/12 08:27:34;;;;;;;56.75;19.48;;;9.20;99.90;;;9.31;100.00;100246.34;4879550;29;20049;-69
2023/12/12 08:30:05;;;;;;;47.45;18.52;;;9.20;99.90;;;9.35;100.00;100255.97;4879703;29;20048;-72
2023/12/12 08:32:34;;;;;;;53.35;19.15;;;9.20;99.90;;;9.35;100.00;100245.44;4879594;29;20052;-70
2023/12/12 08:35:04;;;;;;;46.55;18.27;;;9.20;99.90;;;9.40;100.00;100249.75;4879581;29;20049;-73
2023/12/12 08:37:35;;;;;;;49.80;18.30;;;9.20;99.90;;;9.52;100.00;100252.28;4879198;29;20049;-70
2023/12/12 08:40:05;;;;;;;52.55;19.40;;;9.30;99.90;;;9.53;100.00;100245.22;4879475;29;20052;-68
2023/12/12 08:42:34;;;;;;;67.22;21.10;;;9.40;99.90;;;9.54;100.00;100254.91;4879399;29;20128;-68
2023/12/12 08:45:05;;;;;;;61.90;21.20;;;9.40;99.90;;;9.60;100.00;100231.09;4879553;29;20049;-69
2023/12/12 08:47:36;;;;;;;57.03;19.48;;;9.50;99.90;;;9.85;100.00;100251.91;4879629;29;20078;-70
2023/12/12 08:50:06;;;;;;;52.03;20.23;;;9.70;99.90;;;9.89;100.00;100250.13;4879496;29;20045;-69
2023/12/12 08:52:35;;;;;;;64.43;22.25;;;9.80;99.90;;;9.83;100.00;100242.25;4879215;29;20180;-69
2023/12/12 08:55:10;;;;;;;63.35;24.00;;;9.70;99.90;;;9.96;100.00;100246.50;4878132;29;20045;-70
2023/12/12 08:57:39;;;;;;;69.32;23.73;;;9.80;99.90;;;10.01;100.00;100253.47;4879204;29;20081;-70
2023/12/12 09:00:12;;;;;;;61.63;25.23;;;9.90;99.90;;;9.74;100.00;100185.13;4879150;29;20053;-70
2023/12/12 09:02:41;;;;;;;64.05;23.65;;;9.90;99.90;;;10.10;100.00;100234.03;4879439;29;20166;-70
2023/12/12 09:05:10;;;;;;;53.15;23.30;;;10.00;99.90;;;10.17;100.00;100240.97;4879230;29;20045;-70
2023/12/12 09:07:38;;;;;;;64.55;23.77;;;10.00;99.90;;;10.17;100.00;100227.78;4879024;29;20109;-70
2023/12/12 09:10:08;;;;;;;65.55;23.25;;;10.10;99.90;;;10.16;100.00;100226.03;4878941;29;20053;-70
2023/12/12 09:12:37;;;;;;;59.95;22.20;;;10.00;99.90;;;10.14;100.00;100229.59;4879075;29;20064;-70
2023/12/12 09:15:06;;;;;;;53.83;21.27;;;10.00;99.90;;;10.06;100.00;100227.00;4878937;29;20101;-70
2023/12/12 09:17:36;;;;;;;59.67;21.00;;;9.90;99.90;;;10.25;100.00;100215.34;4878970;29;20052;-70
2023/12/12 09:20:06;;;;;;;52.50;22.25;;;10.10;99.90;;;10.26;100.00;100210.94;4879003;29;20101;-70
2023/12/12 09:22:36;;;;;;;55.05;19.75;;;10.20;99.90;;;10.29;100.00;100202.94;4879014;29;20461;-70
2023/12/12 09:25:05;;;;;;;49.97;19.67;;;10.20;99.90;;;10.30;100.00;100202.91;4878863;29;20164;-70
2023/12/12 09:27:34;;;;;;;59.97;21.53;;;10.20;99.90;;;10.38;100.00;100208.97;4878903;29;20048;-70
2023/12/12 09:30:03;;;;;;;58.15;21.23;;;10.20;99.90;;;10.34;100.00;100191.41;4893389;29;20057;-70
2023/12/12 09:32:33;;;;;;;55.00;19.77;;;10.20;99.90;;;10.38;100.00;100192.22;4882560;29;20045;-70
2023/12/12 09:35:04;;;;;;;46.72;19.98;;;10.30;99.90;;;10.40;100.00;100182.50;4882620;29;20156;-70
2023/12/12 09:37:32;;;;;;;55.42;20.75;;;10.30;99.90;;;10.26;100.00;100163.34;4882730;29;20044;-70
2023/12/12 09:40:02;;;;;;;47.50;19.75;;;10.30;99.90;;;10.42;100.00;100178.06;4882599;29;20045;-70
2023/12/12 09:42:34;;;;;;;48.92;20.75;;;10.30;99.90;;;10.29;100.00;100131.59;4883155;29;20049;-70
2023/12/12 09:45:09;;;;;;;53.95;19.58;;;10.40;99.90;;;10.58;100.00;100176.94;4912778;29;20414;-70
2023/12/12 09:47:42;;;;;;;44.95;18.40;;;10.50;99.90;;;10.64;100.00;100158.34;4882585;29;20049;-70
2023/12/12 09:50:13;;;;;;;45.33;18.23;;;10.50;99.90;;;10.69;100.00;100164.44;4882509;29;20045;-70
2023/12/12 09:52:43;;;;;;;47.97;17.83;;;10.50;99.90;;;10.54;100.00;100152.34;4882432;29;20506;-70
2023/12/12 09:55:12;;;;;;;41.75;19.02;;;10.50;99.90;;;10.65;100.00;100152.16;4882597;29;20470;-70
2023/12/12 09:57:40;;;;;;;47.33;19.55;;;10.60;99.90;;;10.69;100.00;100144.16;4896718;29;20506;-70
2023/12/12 10:00:10;;;;;;;50.03;19.20;;;10.60;99.90;;;10.62;100.00;100146.94;4882524;29;20048;-69
2023/12/12 10:02:39;;;;;;;39.90;19.43;;;10.60;99.90;;;10.70;100.00;100142.38;4881991;29;20084;-70
2023/12/12 10:05:09;;;;;;;44.88;20.45;;;10.60;99.90;;;10.64;100.00;100129.25;4881986;29;20700;-68
2023/12/12 10:07:41;;;;;;;48.85;21.65;;;10.60;99.90;;;10.64;100.00;100129.25;4882180;29;20097;-68
2023/12/12 10:10:14;;;;;;;45.50;21.35;;;10.60;99.90;;;10.77;100.00;100128.16;4896571;29;20073;-68
2023/12/12 10:12:43;;;;;;;46.55;21.27;;;10.60;99.90;;;10.70;100.00;100131.81;4882286;29;20398;-68
2023/12/12 10:15:27;;;;;;;43.10;22.33;;;10.60;99.90;;;10.77;100.00;100122.84;4881961;29;20053;-68
2023/12/12 10:17:57;;;;;;;57.53;21.15;;;10.60;99.90;;;10.73;100.00;100129.09;4881274;29;20057;-68